Time;durP1;ratioP1;P1;durP2;ratioP2;P2;SDS_P1;SDS_P2;PMS_P1;PMS_P2;Temp;Humidity;BMP_temperature;BMP_pressure;BME280_temperature;BME280_humidity;BME280_pressure;Samples;Min_cycle;Max_cycle;Signal;HPM_P1;HPM_P2
2022/04/28 00:02:10;;;;;;;9.07;4.37;;;4.80;99.90;;;;;;5120337;27;20325;-67
2022/04/28 00:04:36;;;;;;;6.30;3.30;;;4.80;99.90;;;;;;5125497;27;20179;-68
2022/04/28 00:07:02;;;;;;;6.80;3.60;;;4.90;99.90;;;;;;5118784;27;20229;-67
2022/04/28 00:09:28;;;;;;;5.93;3.47;;;4.80;99.90;;;;;;5117838;27;20867;-67
2022/04/28 00:11:53;;;;;;;9.17;4.13;;;4.80;99.90;;;;;;5121512;27;20473;-67
2022/04/28 00:14:20;;;;;;;8.30;4.10;;;4.80;99.90;;;;;;5124909;27;20195;-67
2022/04/28 00:16:46;;;;;;;8.47;3.37;;;4.70;99.90;;;;;;5112266;27;20191;-67
2022/04/28 00:19:11;;;;;;;5.47;3.77;;;4.70;99.90;;;;;;5117122;27;20444;-67
2022/04/28 00:21:37;;;;;;;8.30;3.80;;;4.70;99.90;;;;;;5121354;27;20850;-67
2022/04/28 00:24:03;;;;;;;6.40;4.20;;;4.60;99.90;;;;;;5126171;27;20960;-68
2022/04/28 00:26:28;;;;;;;5.00;3.27;;;4.60;99.90;;;;;;5117700;27;20187;-67
2022/04/28 00:28:54;;;;;;;6.13;3.43;;;4.60;99.90;;;;;;5122077;27;20188;-68
2022/04/28 00:31:19;;;;;;;8.53;3.90;;;4.60;99.90;;;;;;5121570;27;20674;-67
2022/04/28 00:33:48;;;;;;;8.33;4.37;;;4.60;99.90;;;;;;5128832;27;20267;-67
2022/04/28 00:36:17;;;;;;;10.13;3.97;;;4.50;99.90;;;;;;5127269;27;20201;-67
2022/04/28 00:38:43;;;;;;;8.53;3.97;;;4.60;99.90;;;;;;5088460;28;20477;-67
2022/04/28 00:41:08;;;;;;;7.70;3.60;;;4.50;99.90;;;;;;5118817;27;20544;-67
2022/04/28 00:43:48;;;;;;;6.63;4.17;;;4.50;99.90;;;;;;5118565;27;20192;-67
2022/04/28 00:46:14;;;;;;;7.70;2.87;;;4.50;99.90;;;;;;5117986;27;20189;-67
2022/04/28 00:51:25;;;;;;;7.57;3.40;;;4.40;99.90;;;;;;5118725;27;20198;-68
2022/04/28 00:53:51;;;;;;;5.87;3.60;;;4.40;99.90;;;;;;5119544;27;20517;-67
2022/04/28 00:56:17;;;;;;;7.67;4.10;;;4.40;99.90;;;;;;5125333;27;20876;-67
2022/04/28 00:58:44;;;;;;;9.27;4.30;;;4.40;99.90;;;;;;5116526;27;20448;-67
2022/04/28 01:01:10;;;;;;;9.97;4.33;;;4.40;99.90;;;;;;5113657;27;20473;-67
2022/04/28 01:03:36;;;;;;;7.10;3.97;;;4.30;99.90;;;;;;5125870;27;20424;-67
2022/04/28 01:06:04;;;;;;;8.73;4.17;;;4.30;99.90;;;;;;5127482;27;20183;-68
2022/04/28 01:08:30;;;;;;;5.50;3.50;;;4.30;99.90;;;;;;5123997;27;20456;-67
2022/04/28 01:10:57;;;;;;;6.90;3.27;;;4.30;99.90;;;;;;5118927;28;20451;-67
2022/04/28 01:13:22;;;;;;;10.50;5.00;;;4.30;99.90;;;;;;5120069;28;20566;-67
2022/04/28 01:15:49;;;;;;;6.77;3.93;;;4.20;99.90;;;;;;5127187;28;20511;-67
2022/04/28 01:18:16;;;;;;;8.00;3.80;;;4.20;99.90;;;;;;5123228;28;20192;-67
2022/04/28 01:20:43;;;;;;;9.53;3.87;;;4.10;99.90;;;;;;5108258;28;20433;-67
2022/04/28 01:23:09;;;;;;;10.60;4.50;;;4.10;99.90;;;;;;5110373;28;20429;-68
2022/04/28 01:25:35;;;;;;;9.10;4.57;;;4.00;99.90;;;;;;5115580;28;20467;-67
2022/04/28 01:28:01;;;;;;;8.00;3.93;;;4.00;99.90;;;;;;5120482;28;20469;-67
2022/04/28 01:30:28;;;;;;;6.70;3.60;;;4.00;99.90;;;;;;5121694;28;20436;-67
2022/04/28 01:32:56;;;;;;;7.40;3.83;;;3.90;99.90;;;;;;5126719;28;20619;-67
2022/04/28 01:35:22;;;;;;;6.93;3.87;;;3.90;99.90;;;;;;5126201;28;20547;-67
2022/04/28 01:37:47;;;;;;;8.00;3.83;;;3.90;99.90;;;;;;5120110;28;20513;-67
2022/04/28 01:40:13;;;;;;;7.73;3.90;;;3.90;99.90;;;;;;5124983;27;20900;-67
2022/04/28 01:42:40;;;;;;;9.33;4.80;;;3.90;99.90;;;;;;5124048;27;20293;-67
2022/04/28 01:45:07;;;;;;;6.50;4.20;;;3.90;99.90;;;;;;5126326;27;20207;-67
2022/04/28 01:47:33;;;;;;;10.57;5.10;;;3.90;99.90;;;;;;5122980;27;20515;-67
2022/04/28 01:49:59;;;;;;;8.80;4.83;;;3.90;99.90;;;;;;5124647;27;20444;-67
2022/04/28 01:55:09;;;;;;;8.87;4.13;;;3.90;99.90;;;;;;5130755;27;20261;-67
2022/04/28 01:57:35;;;;;;;9.70;5.13;;;3.80;99.90;;;;;;5129440;27;20900;-67
2022/04/28 02:00:01;;;;;;;10.90;5.23;;;3.80;99.90;;;;;;5128743;27;20214;-67
2022/04/28 02:02:27;;;;;;;10.80;4.10;;;3.80;99.90;;;;;;5128875;27;20221;-67
2022/04/28 02:04:58;;;;;;;11.77;5.87;;;3.80;99.90;;;;;;5130689;27;20419;-67
2022/04/28 02:07:25;;;;;;;7.17;4.03;;;3.70;99.90;;;;;;5120627;27;20440;-67
2022/04/28 02:09:51;;;;;;;8.57;4.60;;;3.80;99.90;;;;;;5114613;27;20423;-67
2022/04/28 02:12:17;;;;;;;8.70;4.83;;;3.70;99.90;;;;;;5128251;27;20455;-67
2022/04/28 02:14:42;;;;;;;9.67;4.97;;;3.70;99.90;;;;;;5127908;27;20497;-67
2022/04/28 02:17:08;;;;;;;9.77;5.60;;;3.80;99.90;;;;;;5128723;27;20266;-67
2022/04/28 02:19:37;;;;;;;9.60;4.97;;;3.80;99.90;;;;;;5129511;27;20673;-67
2022/04/28 02:22:04;;;;;;;10.40;4.80;;;3.80;99.90;;;;;;5127437;27;20456;-67
2022/04/28 02:24:29;;;;;;;12.70;5.43;;;3.80;99.90;;;;;;5128507;27;20441;-67
2022/04/28 02:26:55;;;;;;;8.87;5.27;;;3.70;99.90;;;;;;5128441;27;20456;-67
2022/04/28 02:29:21;;;;;;;9.80;5.40;;;3.70;99.90;;;;;;5130510;27;20262;-67
2022/04/28 02:31:46;;;;;;;10.50;5.17;;;3.70;99.90;;;;;;5121461;27;20425;-67
2022/04/28 02:34:12;;;;;;;9.93;4.90;;;3.70;99.90;;;;;;5128692;27;20179;-67
2022/04/28 02:36:38;;;;;;;7.53;4.70;;;3.70;99.90;;;;;;5119046;27;20655;-67
2022/04/28 02:39:04;;;;;;;8.67;4.77;;;3.70;99.90;;;;;;5119639;27;20710;-67
2022/04/28 02:41:29;;;;;;;8.20;4.97;;;3.60;99.90;;;;;;5129944;27;20721;-67
2022/04/28 02:43:55;;;;;;;12.47;5.80;;;3.60;99.90;;;;;;5128509;27;20187;-67
2022/04/28 02:46:21;;;;;;;9.07;5.27;;;3.60;99.90;;;;;;5119112;27;20195;-68
2022/04/28 02:48:47;;;;;;;9.07;4.60;;;3.60;99.90;;;;;;5116793;27;20194;-67
2022/04/28 02:51:13;;;;;;;10.43;5.40;;;3.60;99.90;;;;;;5127412;27;20186;-67
2022/04/28 02:53:38;;;;;;;8.20;4.63;;;3.60;99.90;;;;;;5125963;27;20421;-67
2022/04/28 02:56:04;;;;;;;8.40;4.70;;;3.60;99.90;;;;;;5115014;27;20524;-67
2022/04/28 02:58:34;;;;;;;11.80;5.27;;;3.50;99.90;;;;;;5126166;27;20198;-67
2022/04/28 03:01:00;;;;;;;10.37;5.70;;;3.50;99.90;;;;;;5125486;27;20460;-67
2022/04/28 03:03:26;;;;;;;11.50;4.97;;;3.40;99.90;;;;;;5129820;27;20421;-67
2022/04/28 03:11:20;;;;;;;11.50;5.70;;;3.40;99.90;;;;;;5121811;27;20418;-67
2022/04/28 03:13:45;;;;;;;11.43;5.47;;;3.40;99.90;;;;;;5123143;27;20425;-67
2022/04/28 03:16:11;;;;;;;10.80;4.90;;;3.40;99.90;;;;;;5115869;27;20190;-67
2022/04/28 03:18:37;;;;;;;10.53;5.27;;;3.40;99.90;;;;;;5126174;27;20211;-67
2022/04/28 03:21:05;;;;;;;11.23;4.07;;;3.40;99.90;;;;;;5123043;27;20663;-67
2022/04/28 03:23:31;;;;;;;9.00;5.00;;;3.30;99.90;;;;;;5126978;27;20420;-67
2022/04/28 03:25:56;;;;;;;7.53;3.43;;;3.20;99.90;;;;;;5126992;27;20819;-67
2022/04/28 03:28:23;;;;;;;10.60;5.10;;;3.20;99.90;;;;;;5129104;27;20187;-67
2022/04/28 03:30:49;;;;;;;9.03;5.30;;;3.10;99.90;;;;;;5118939;27;20183;-67
2022/04/28 03:33:16;;;;;;;10.30;4.77;;;3.10;99.90;;;;;;5125348;27;20412;-67
2022/04/28 03:35:42;;;;;;;10.93;5.27;;;3.10;99.90;;;;;;5120479;27;20540;-67
2022/04/28 03:38:12;;;;;;;8.30;4.47;;;3.10;99.90;;;;;;5117903;27;20508;-68
2022/04/28 03:40:41;;;;;;;10.20;4.90;;;3.00;99.90;;;;;;5118022;27;20383;-68
2022/04/28 03:43:07;;;;;;;7.67;4.40;;;3.00;99.90;;;;;;5122776;27;20424;-67
2022/04/28 03:45:33;;;;;;;8.40;4.87;;;3.00;99.90;;;;;;5128574;27;20408;-70
2022/04/28 03:48:00;;;;;;;11.63;5.67;;;2.90;99.90;;;;;;5128342;27;20190;-73
2022/04/28 03:50:28;;;;;;;12.17;5.33;;;2.90;99.90;;;;;;5114367;27;20424;-68
2022/04/28 03:52:55;;;;;;;15.77;5.33;;;2.90;99.90;;;;;;5129169;27;20566;-71
2022/04/28 03:55:21;;;;;;;8.27;4.20;;;2.90;99.90;;;;;;5128718;27;20421;-68
2022/04/28 03:57:47;;;;;;;7.90;4.77;;;3.00;99.90;;;;;;5125962;27;20432;-68
2022/04/28 04:00:13;;;;;;;9.03;4.87;;;2.90;99.90;;;;;;5120061;27;20425;-68
2022/04/28 04:02:38;;;;;;;10.90;5.77;;;2.90;99.90;;;;;;5114627;27;20655;-69
2022/04/28 04:05:05;;;;;;;7.80;4.93;;;2.90;99.90;;;;;;5124637;27;20412;-68
2022/04/28 04:07:31;;;;;;;10.90;5.90;;;2.90;99.90;;;;;;5123933;27;20198;-68
2022/04/28 04:09:58;;;;;;;10.73;6.40;;;2.80;99.90;;;;;;5117149;27;20437;-68
2022/04/28 04:12:25;;;;;;;9.60;5.50;;;2.80;99.90;;;;;;5118731;27;20470;-68
2022/04/28 04:14:51;;;;;;;17.10;7.20;;;2.80;99.90;;;;;;5121796;27;20432;-68
2022/04/28 04:17:17;;;;;;;11.97;5.83;;;2.80;99.90;;;;;;5123569;27;20416;-68
2022/04/28 04:19:43;;;;;;;10.07;6.07;;;2.80;99.90;;;;;;5119833;27;20465;-69
2022/04/28 04:22:09;;;;;;;12.73;6.87;;;2.80;99.90;;;;;;5114922;27;20211;-68
2022/04/28 04:24:34;;;;;;;16.43;7.50;;;2.90;99.90;;;;;;5114702;27;20256;-68
2022/04/28 04:27:00;;;;;;;13.80;7.17;;;2.90;99.90;;;;;;5127654;27;20178;-68
2022/04/28 04:29:26;;;;;;;17.03;7.63;;;2.90;99.90;;;;;;5128121;27;20627;-69
2022/04/28 04:34:36;;;;;;;12.33;6.20;;;2.90;99.90;;;;;;5128420;27;20274;-68
2022/04/28 04:37:01;;;;;;;15.33;6.63;;;2.90;99.90;;;;;;5127696;27;20503;-68
2022/04/28 04:39:27;;;;;;;9.60;5.77;;;2.90;99.90;;;;;;5127544;27;20179;-68
2022/04/28 04:41:53;;;;;;;10.57;5.30;;;2.90;99.90;;;;;;5122554;27;20231;-68
2022/04/28 04:44:18;;;;;;;14.57;6.27;;;2.90;99.90;;;;;;5116217;27;20237;-68
2022/04/28 04:46:44;;;;;;;11.37;6.30;;;3.00;99.90;;;;;;5108961;27;20199;-68
2022/04/28 04:49:09;;;;;;;11.10;5.27;;;3.00;99.90;;;;;;5122269;27;20178;-68
2022/04/28 04:51:35;;;;;;;16.03;6.00;;;3.10;99.90;;;;;;5115479;27;20184;-68
2022/04/28 04:54:01;;;;;;;8.80;4.80;;;3.10;99.90;;;;;;5121705;27;20187;-68
2022/04/28 04:56:27;;;;;;;12.10;5.67;;;3.10;99.90;;;;;;5114914;27;20425;-68
2022/04/28 04:58:52;;;;;;;10.43;5.50;;;3.10;99.90;;;;;;5127865;27;20211;-68
2022/04/28 05:01:18;;;;;;;9.73;5.20;;;3.10;99.90;;;;;;5119313;27;20243;-68
2022/04/28 05:03:43;;;;;;;12.10;5.80;;;3.20;99.90;;;;;;5121470;27;20207;-68
2022/04/28 05:06:09;;;;;;;14.60;6.43;;;3.30;99.90;;;;;;5122124;27;20544;-70
2022/04/28 05:08:35;;;;;;;16.20;7.20;;;3.30;99.90;;;;;;5120921;27;20190;-69
2022/04/28 05:11:01;;;;;;;17.70;7.20;;;3.40;99.90;;;;;;5121769;27;20187;-68
2022/04/28 05:13:26;;;;;;;11.03;5.50;;;3.40;99.90;;;;;;5122573;28;20191;-69
2022/04/28 05:15:53;;;;;;;11.10;6.13;;;3.50;99.90;;;;;;5122221;27;20193;-69
2022/04/28 05:18:18;;;;;;;11.93;6.93;;;3.50;99.90;;;;;;5116829;28;20274;-69
2022/04/28 05:20:44;;;;;;;14.63;7.20;;;3.60;99.90;;;;;;5127298;28;20508;-69
2022/04/28 05:23:10;;;;;;;10.70;6.47;;;3.60;99.90;;;;;;5120619;28;20236;-69
2022/04/28 05:25:36;;;;;;;14.17;7.13;;;3.70;99.90;;;;;;5121488;28;20216;-69
2022/04/28 05:28:02;;;;;;;14.30;7.77;;;3.80;99.90;;;;;;5108237;28;20201;-69
2022/04/28 05:30:28;;;;;;;18.53;7.40;;;3.90;99.90;;;;;;5120688;28;20858;-69
2022/04/28 05:32:54;;;;;;;18.23;7.70;;;4.00;99.90;;;;;;5121734;28;20435;-69
2022/04/28 05:35:19;;;;;;;24.27;8.80;;;4.00;99.90;;;;;;5126855;28;20299;-68
2022/04/28 05:37:45;;;;;;;16.37;9.20;;;4.20;99.90;;;;;;5125816;28;20275;-67
2022/04/28 05:40:13;;;;;;;15.30;8.37;;;4.20;99.90;;;;;;5127231;28;20186;-68
2022/04/28 05:45:42;;;;;;;18.63;8.60;;;4.40;99.90;;;;;;5112378;28;20443;-68
2022/04/28 05:48:12;;;;;;;15.90;7.50;;;4.50;99.90;;;;;;5116739;28;20459;-68
2022/04/28 05:50:38;;;;;;;15.03;7.73;;;4.60;99.90;;;;;;5117299;28;20886;-68
2022/04/28 05:53:04;;;;;;;15.90;8.60;;;4.70;99.90;;;;;;5116871;28;20796;-68
2022/04/28 05:55:30;;;;;;;25.43;10.53;;;4.80;99.90;;;;;;5120697;28;20408;-68
2022/04/28 05:57:59;;;;;;;15.73;8.90;;;5.00;99.90;;;;;;5112347;28;20203;-68
2022/04/28 06:00:26;;;;;;;15.83;8.80;;;5.10;99.90;;;;;;5124676;28;20206;-68
2022/04/28 06:02:52;;;;;;;14.47;8.17;;;5.20;99.90;;;;;;5104358;28;20465;-69
2022/04/28 06:05:18;;;;;;;19.83;9.10;;;5.40;99.90;;;;;;5108474;28;20438;-68
2022/04/28 06:07:44;;;;;;;23.00;9.13;;;5.60;99.90;;;;;;5111233;28;20425;-68
2022/04/28 06:10:10;;;;;;;14.53;7.90;;;5.80;99.90;;;;;;5114322;28;20483;-69
2022/04/28 06:12:36;;;;;;;16.57;8.57;;;6.00;99.90;;;;;;5116288;28;20179;-68
2022/04/28 06:15:03;;;;;;;15.27;8.67;;;6.10;99.90;;;;;;5110872;28;20195;-68
2022/04/28 06:17:28;;;;;;;15.37;8.80;;;6.30;99.90;;;;;;5116411;28;20440;-69
2022/04/28 06:19:54;;;;;;;16.50;8.17;;;6.50;99.90;;;;;;5113890;28;21219;-69
2022/04/28 06:22:20;;;;;;;13.37;7.37;;;6.70;99.90;;;;;;5118019;28;20691;-71
2022/04/28 06:24:51;;;;;;;16.90;8.23;;;6.90;99.90;;;;;;5111727;28;20183;-67
2022/04/28 06:27:16;;;;;;;16.30;7.57;;;7.00;99.90;;;;;;5108401;28;20172;-68
2022/04/28 06:29:42;;;;;;;16.50;6.87;;;7.20;99.90;;;;;;5120908;27;21226;-67
2022/04/28 06:32:07;;;;;;;17.30;7.87;;;7.30;99.90;;;;;;5125653;27;20209;-68
2022/04/28 06:34:33;;;;;;;11.33;6.83;;;7.50;99.90;;;;;;5122465;27;20636;-69
2022/04/28 06:36:59;;;;;;;17.70;8.30;;;7.70;99.90;;;;;;5120835;27;20184;-68
2022/04/28 06:39:24;;;;;;;13.10;6.90;;;7.90;99.90;;;;;;5119879;27;20279;-69
2022/04/28 06:41:50;;;;;;;10.00;5.70;;;8.00;99.90;;;;;;5121701;27;20899;-68
2022/04/28 06:44:15;;;;;;;10.53;6.17;;;8.30;99.90;;;;;;5119493;27;20183;-68
2022/04/28 06:46:41;;;;;;;9.50;4.90;;;8.40;99.90;;;;;;5123161;27;20182;-68
2022/04/28 06:49:07;;;;;;;10.00;5.53;;;8.60;99.90;;;;;;5117426;27;20178;-68
2022/04/28 06:51:33;;;;;;;14.13;6.17;;;8.70;99.90;;;;;;5111864;27;20183;-68
2022/04/28 06:54:00;;;;;;;10.20;5.63;;;8.80;99.90;;;;;;5119843;27;20448;-69
2022/04/28 06:56:25;;;;;;;14.30;5.60;;;9.20;99.90;;;;;;5121207;27;20859;-69
2022/04/28 06:58:51;;;;;;;10.60;5.77;;;9.40;99.90;;;;;;5122741;27;20412;-69
2022/04/28 07:01:17;;;;;;;9.73;5.77;;;9.70;99.90;;;;;;5120347;27;20198;-69
2022/04/28 07:03:42;;;;;;;8.63;4.57;;;9.80;99.90;;;;;;5119209;27;20283;-69
2022/04/28 07:06:09;;;;;;;8.07;4.57;;;10.20;99.90;;;;;;5118673;27;20664;-69
2022/04/28 07:08:34;;;;;;;11.43;5.07;;;10.50;99.90;;;;;;5120289;27;20212;-69
2022/04/28 07:11:00;;;;;;;8.90;4.13;;;10.80;99.90;;;;;;5122726;27;20413;-69
2022/04/28 07:13:25;;;;;;;7.27;4.30;;;11.10;99.90;;;;;;5094530;27;20576;-69
2022/04/28 07:15:51;;;;;;;7.00;3.80;;;11.70;99.90;;;;;;5121888;27;20788;-69
2022/04/28 07:18:17;;;;;;;7.77;4.27;;;11.90;99.10;;;;;;5121675;27;20187;-70
2022/04/28 07:20:44;;;;;;;7.03;4.33;;;12.40;98.60;;;;;;5121571;27;20179;-69
2022/04/28 07:23:10;;;;;;;6.73;3.83;;;12.70;97.20;;;;;;5117082;27;20611;-69
2022/04/28 07:25:36;;;;;;;4.73;3.10;;;12.80;96.50;;;;;;5119767;27;20488;-69
2022/04/28 07:28:02;;;;;;;6.63;3.57;;;13.20;96.30;;;;;;5108406;27;20179;-70
2022/04/28 07:30:28;;;;;;;5.80;3.20;;;14.10;94.40;;;;;;5113880;27;20192;-70
2022/04/28 07:32:53;;;;;;;7.00;3.40;;;15.20;93.10;;;;;;5106178;27;20479;-70
2022/04/28 07:35:21;;;;;;;5.30;2.80;;;16.50;90.20;;;;;;5112279;27;20310;-70
2022/04/28 07:37:46;;;;;;;4.40;2.40;;;17.50;85.50;;;;;;5122325;27;20175;-67
2022/04/28 07:40:12;;;;;;;6.53;3.27;;;18.50;80.70;;;;;;5121357;27;20428;-67
2022/04/28 07:42:38;;;;;;;7.87;3.40;;;18.90;79.40;;;;;;5122252;27;20202;-67
2022/04/28 07:45:05;;;;;;;4.90;2.60;;;19.10;77.60;;;;;;5121044;27;20193;-67
2022/04/28 07:47:31;;;;;;;5.07;2.90;;;20.00;73.40;;;;;;5124070;27;20186;-68
2022/04/28 07:49:57;;;;;;;3.90;2.30;;;19.90;73.00;;;;;;5102062;27;20433;-68
2022/04/28 07:52:23;;;;;;;4.27;2.27;;;20.20;71.20;;;;;;5112210;27;20424;-68
2022/04/28 07:54:49;;;;;;;7.33;3.00;;;19.20;73.20;;;;;;5111604;27;20206;-69
2022/04/28 07:57:17;;;;;;;6.57;3.03;;;19.30;74.30;;;;;;5108502;27;20922;-68
2022/04/28 07:59:43;;;;;;;5.93;3.07;;;18.90;70.80;;;;;;5094043;28;20456;-69
2022/04/28 08:02:11;;;;;;;9.30;3.03;;;18.80;74.90;;;;;;5101716;28;20496;-70
2022/04/28 08:04:38;;;;;;;3.43;1.87;;;19.00;71.90;;;;;;5094532;28;20180;-67
2022/04/28 08:07:04;;;;;;;6.20;2.93;;;19.40;71.20;;;;;;5093453;28;20417;-66
2022/04/28 08:09:30;;;;;;;4.87;2.47;;;19.40;70.70;;;;;;5088615;28;20441;-68
2022/04/28 08:11:56;;;;;;;5.20;2.43;;;19.40;72.80;;;;;;5092545;28;20187;-68
2022/04/28 08:14:25;;;;;;;4.90;2.50;;;20.20;69.30;;;;;;5097319;28;20487;-68
2022/04/28 08:16:54;;;;;;;2.90;1.70;;;20.20;68.00;;;;;;5099559;28;20185;-68
2022/04/28 08:19:20;;;;;;;4.53;2.40;;;19.80;67.90;;;;;;5101230;28;21095;-68
2022/04/28 08:21:49;;;;;;;3.47;1.87;;;20.30;66.80;;;;;;5099929;28;20460;-68
2022/04/28 08:24:15;;;;;;;4.20;2.73;;;19.80;67.50;;;;;;5099197;28;20814;-68
2022/04/28 08:26:41;;;;;;;6.23;2.67;;;20.40;66.80;;;;;;5100182;28;20452;-68
2022/04/28 08:29:06;;;;;;;4.80;2.60;;;20.60;65.40;;;;;;5099276;28;20528;-68
2022/04/28 08:31:33;;;;;;;3.10;1.83;;;20.40;64.30;;;;;;5102211;28;20614;-68
2022/04/28 08:33:58;;;;;;;5.40;2.23;;;19.70;67.00;;;;;;5083432;28;20219;-68
2022/04/28 08:36:25;;;;;;;9.40;2.97;;;19.90;67.70;;;;;;5107458;27;20499;-68
2022/04/28 08:38:52;;;;;;;3.77;2.30;;;20.10;67.30;;;;;;5096689;28;20358;-69
2022/04/28 08:41:36;;;;;;;4.00;2.40;;;20.50;64.60;;;;;;5094359;28;20472;-67
2022/04/28 08:44:04;;;;;;;5.40;2.87;;;20.20;65.20;;;;;;5113109;27;20421;-68
2022/04/28 08:49:15;;;;;;;3.97;2.17;;;21.00;64.10;;;;;;5098019;28;20425;-67
2022/04/28 08:51:43;;;;;;;3.70;1.73;;;21.60;62.70;;;;;;5098908;28;20877;-68
2022/04/28 08:54:10;;;;;;;3.10;1.97;;;20.80;62.20;;;;;;5097268;28;20245;-67
2022/04/28 08:56:36;;;;;;;4.90;2.20;;;19.70;65.10;;;;;;5098817;28;20421;-67
2022/04/28 08:59:02;;;;;;;3.60;2.10;;;20.10;64.00;;;;;;5102010;28;20780;-67
2022/04/28 09:01:28;;;;;;;3.33;1.77;;;19.50;63.20;;;;;;5098743;28;20460;-67
2022/04/28 09:04:03;;;;;;;8.63;2.10;;;19.60;66.10;;;;;;5098516;28;20603;-67
2022/04/28 09:06:31;;;;;;;4.33;2.30;;;20.10;64.00;;;;;;5098586;28;20412;-67
2022/04/28 09:08:57;;;;;;;4.57;2.53;;;20.20;61.30;;;;;;5079315;28;20437;-69
2022/04/28 09:11:25;;;;;;;3.53;1.83;;;20.30;62.10;;;;;;5091709;28;20417;-67
2022/04/28 09:14:15;;;;;;;5.10;2.20;;;20.40;60.80;;;;;;5103314;28;20594;-67
2022/04/28 09:16:48;;;;;;;4.80;2.37;;;20.20;59.00;;;;;;5096652;28;20973;-66
2022/04/28 09:19:24;;;;;;;5.17;2.20;;;19.60;60.00;;;;;;5097435;28;20460;-66
2022/04/28 09:21:53;;;;;;;2.80;1.60;;;18.90;60.20;;;;;;5100077;28;20459;-67
2022/04/28 09:24:19;;;;;;;4.43;2.07;;;18.60;58.50;;;;;;5088774;28;20457;-67
2022/04/28 09:26:46;;;;;;;3.80;2.03;;;19.00;58.50;;;;;;5106484;28;20448;-68
2022/04/28 09:29:14;;;;;;;3.07;1.80;;;18.60;59.80;;;;;;5102903;28;20482;-68
2022/04/28 09:31:41;;;;;;;8.80;2.80;;;18.30;61.30;;;;;;5096729;28;20421;-68
2022/04/28 09:34:10;;;;;;;3.83;1.87;;;18.40;65.20;;;;;;5090219;28;20425;-67
2022/04/28 09:36:37;;;;;;;5.90;1.57;;;18.60;61.30;;;;;;5104434;28;20893;-67
2022/04/28 09:39:05;;;;;;;8.40;1.63;;;18.90;59.60;;;;;;5096785;28;20482;-68
2022/04/28 09:44:16;;;;;;;5.40;2.50;;;18.50;62.10;;;;;;5102972;28;20442;-68
2022/04/28 09:46:43;;;;;;;5.93;2.53;;;18.80;62.40;;;;;;5096525;28;20458;-69
2022/04/28 09:49:10;;;;;;;3.30;1.70;;;18.90;63.40;;;;;;5089721;28;20478;-68
2022/04/28 09:51:40;;;;;;;3.43;2.07;;;18.50;61.20;;;;;;5103380;28;20416;-68
2022/04/28 09:54:14;;;;;;;4.13;2.43;;;18.50;64.50;;;;;;5100970;28;20522;-68
2022/04/28 09:56:42;;;;;;;3.30;2.00;;;18.40;61.00;;;;;;5100585;28;20420;-68
2022/04/28 09:59:10;;;;;;;4.50;2.37;;;18.40;62.90;;;;;;5097997;28;20429;-68
2022/04/28 10:01:37;;;;;;;9.30;2.97;;;18.20;61.80;;;;;;5096325;28;20484;-67
2022/04/28 10:04:04;;;;;;;3.13;1.67;;;18.00;63.00;;;;;;5101043;28;20951;-68
2022/04/28 10:06:34;;;;;;;3.00;1.63;;;18.00;62.30;;;;;;5099138;28;20514;-68
2022/04/28 10:09:12;;;;;;;7.20;2.47;;;17.60;63.30;;;;;;5081974;28;20541;-67
2022/04/28 10:11:38;;;;;;;7.13;2.50;;;17.80;63.40;;;;;;5099673;28;20421;-68
2022/04/28 10:14:06;;;;;;;5.40;2.30;;;17.80;62.60;;;;;;5100458;28;21293;-68
2022/04/28 10:16:33;;;;;;;4.90;1.97;;;17.70;61.10;;;;;;5102346;28;20967;-68
2022/04/28 10:19:04;;;;;;;3.93;2.20;;;17.50;63.40;;;;;;5100699;28;20421;-68
2022/04/28 10:21:36;;;;;;;4.27;1.73;;;17.20;64.20;;;;;;5104056;28;20492;-68
2022/04/28 10:32:55;;;;;;;4.37;1.67;;;17.10;62.30;;;;;;5102679;28;20778;-67
2022/04/28 10:35:49;;;;;;;2.53;1.30;;;17.30;58.10;;;;;;5102225;28;20997;-67
2022/04/28 10:38:18;;;;;;;3.03;1.20;;;17.50;59.70;;;;;;5101009;28;21061;-68
2022/04/28 10:41:04;;;;;;;2.80;1.70;;;17.10;60.10;;;;;;5102225;28;20446;-67
2022/04/28 10:43:32;;;;;;;3.13;1.80;;;17.40;60.70;;;;;;5068163;28;20433;-67
2022/04/28 10:46:22;;;;;;;5.27;1.90;;;17.60;62.50;;;;;;5102814;28;20426;-68
2022/04/28 10:48:53;;;;;;;3.97;1.77;;;17.70;58.90;;;;;;5085301;28;20421;-69
2022/04/28 10:51:22;;;;;;;2.70;1.60;;;17.70;56.80;;;;;;5106651;28;20420;-69
2022/04/28 10:54:14;;;;;;;3.73;1.67;;;17.80;58.90;;;;;;5103660;28;20802;-68
2022/04/28 10:56:40;;;;;;;2.87;1.50;;;17.70;58.80;;;;;;5099237;28;20444;-67
2022/04/28 10:59:37;;;;;;;3.40;1.83;;;17.60;59.60;;;;;;5108123;28;20417;-67
2022/04/28 11:02:13;;;;;;;7.80;1.80;;;17.60;58.50;;;;;;5103322;28;20215;-69
2022/04/28 11:04:40;;;;;;;5.20;2.17;;;17.70;59.40;;;;;;5106990;28;20418;-68
2022/04/28 11:07:09;;;;;;;3.77;1.80;;;17.70;59.00;;;;;;5086710;28;20429;-69
2022/04/28 11:09:38;;;;;;;4.90;1.77;;;17.80;59.30;;;;;;5107366;28;20454;-67
2022/04/28 11:12:08;;;;;;;4.40;2.20;;;17.80;57.90;;;;;;5110064;28;20425;-68
2022/04/28 11:14:44;;;;;;;3.57;1.70;;;17.60;59.10;;;;;;5106675;28;20504;-68
2022/04/28 11:17:11;;;;;;;2.97;1.90;;;17.70;61.60;;;;;;5109504;28;21004;-67
2022/04/28 11:19:36;;;;;;;5.67;2.27;;;17.80;58.80;;;;;;5103676;28;20429;-67
2022/04/28 11:22:03;;;;;;;3.80;2.20;;;17.80;56.90;;;;;;5101502;28;20583;-68
2022/04/28 11:24:29;;;;;;;2.90;1.50;;;17.80;57.40;;;;;;5104116;28;20176;-69
2022/04/28 11:26:59;;;;;;;4.63;2.13;;;17.60;58.10;;;;;;5103523;28;20425;-67
2022/04/28 11:29:25;;;;;;;2.73;1.73;;;17.70;58.20;;;;;;5100629;28;20409;-69
2022/04/28 11:31:53;;;;;;;5.20;1.93;;;17.50;62.30;;;;;;5102547;28;20437;-69
2022/04/28 11:34:18;;;;;;;7.70;2.27;;;17.80;63.10;;;;;;5098741;28;20880;-68
2022/04/28 11:36:44;;;;;;;5.40;2.13;;;17.60;57.50;;;;;;5095326;28;20895;-69
2022/04/28 11:39:10;;;;;;;4.77;2.13;;;17.70;57.50;;;;;;5098439;28;20245;-68
2022/04/28 11:41:39;;;;;;;4.37;2.10;;;17.90;55.90;;;;;;5097865;28;20203;-67
2022/04/28 11:44:10;;;;;;;5.73;2.00;;;18.10;56.80;;;;;;5105620;28;20433;-67
2022/04/28 11:46:50;;;;;;;3.60;1.43;;;18.10;59.10;;;;;;5096010;28;20460;-68
2022/04/28 11:49:20;;;;;;;2.30;1.33;;;18.20;56.80;;;;;;5108346;28;20501;-68
2022/04/28 11:51:46;;;;;;;3.90;2.10;;;18.10;58.80;;;;;;5107381;28;20413;-67
2022/04/28 11:54:21;;;;;;;3.00;1.60;;;17.90;57.00;;;;;;5108046;28;21198;-67
2022/04/28 11:56:47;;;;;;;2.67;1.30;;;18.20;58.50;;;;;;5108088;28;20511;-67
2022/04/28 11:59:13;;;;;;;2.93;1.80;;;18.20;57.80;;;;;;5108126;28;20471;-68
2022/04/28 12:01:39;;;;;;;3.73;1.80;;;17.90;57.10;;;;;;5102657;28;20465;-67
2022/04/28 12:04:05;;;;;;;5.83;1.73;;;18.10;59.10;;;;;;5098261;28;20222;-67
2022/04/28 12:06:31;;;;;;;2.93;2.07;;;18.20;57.40;;;;;;5095091;28;20180;-68
2022/04/28 12:14:22;;;;;;;3.33;1.80;;;18.50;55.90;;;;;;5103905;28;21076;-67
2022/04/28 12:14:34;;;;;;;3.87;1.80;;;18.50;58.80;;;;;;5096867;28;20441;-67
2022/04/28 12:19:56;;;;;;;3.13;1.83;;;18.80;58.20;;;;;;5101147;28;20525;-67
2022/04/28 12:22:24;;;;;;;3.17;1.50;;;18.90;59.80;;;;;;5107080;28;20456;-67
2022/04/28 12:24:50;;;;;;;4.77;2.20;;;19.00;57.10;;;;;;5097524;28;20453;-67
2022/04/28 12:27:16;;;;;;;2.73;1.50;;;19.00;56.50;;;;;;5096611;28;20453;-67
2022/04/28 12:29:47;;;;;;;2.40;1.30;;;19.00;58.10;;;;;;5098540;28;20987;-68
2022/04/28 12:32:13;;;;;;;6.20;2.33;;;19.10;57.10;;;;;;5096784;28;20274;-67
2022/04/28 12:34:38;;;;;;;5.27;1.97;;;19.10;57.40;;;;;;5094565;28;20430;-68
2022/04/28 12:37:04;;;;;;;2.50;1.60;;;19.20;55.30;;;;;;5104576;28;20274;-68
2022/04/28 12:39:31;;;;;;;3.40;1.70;;;19.00;59.10;;;;;;5097841;28;20901;-67
2022/04/28 12:41:57;;;;;;;8.00;2.23;;;19.10;57.70;;;;;;5098811;28;20291;-67
2022/04/28 12:44:23;;;;;;;7.23;1.63;;;19.20;59.40;;;;;;5105107;28;20481;-67
2022/04/28 12:46:51;;;;;;;4.60;1.90;;;19.30;57.50;;;;;;5107172;28;20257;-67
2022/04/28 12:49:17;;;;;;;3.53;1.73;;;19.00;57.50;;;;;;5106354;28;20424;-67
2022/04/28 12:52:02;;;;;;;3.87;1.70;;;19.00;60.40;;;;;;5103898;28;20944;-66
2022/04/28 12:54:38;;;;;;;2.80;1.67;;;19.00;57.70;;;;;;5103603;28;20452;-66
2022/04/28 12:57:04;;;;;;;3.77;2.00;;;19.10;59.20;;;;;;5104570;28;20452;-67
2022/04/28 12:59:36;;;;;;;3.37;1.60;;;19.40;56.10;;;;;;5104531;28;20462;-67
2022/04/28 13:02:02;;;;;;;4.10;1.90;;;19.50;54.70;;;;;;5102065;28;20463;-67
2022/04/28 13:04:28;;;;;;;5.10;1.93;;;19.70;53.80;;;;;;5104740;28;20492;-67
2022/04/28 13:06:55;;;;;;;12.53;2.17;;;19.70;54.50;;;;;;5102858;28;20478;-66
2022/04/28 13:09:22;;;;;;;5.10;1.80;;;19.40;59.20;;;;;;5103707;28;20179;-67
2022/04/28 13:11:49;;;;;;;4.30;1.73;;;19.50;56.10;;;;;;5105166;28;20975;-66
2022/04/28 13:14:17;;;;;;;3.40;1.67;;;19.60;57.30;;;;;;5104213;28;21046;-67
2022/04/28 13:16:43;;;;;;;3.17;1.70;;;19.50;57.10;;;;;;5098164;28;20422;-67
2022/04/28 13:19:10;;;;;;;3.60;1.83;;;19.30;55.80;;;;;;5101838;28;20461;-67
2022/04/28 13:21:38;;;;;;;4.57;1.97;;;19.40;55.60;;;;;;5100137;28;20471;-66
2022/04/28 13:24:04;;;;;;;2.17;1.20;;;19.60;55.10;;;;;;5103350;28;20433;-67
2022/04/28 13:26:30;;;;;;;4.13;1.67;;;19.50;55.00;;;;;;5091454;28;20430;-67